Hlavní strana
METAR-TAF:

METAR-TAF

Letiště :

Berlevåg, Norsko

zeměpisná šířka: 70-52N, zeměpisná délka: 029-02E, výška: 1 m

Aktuální stav počasí

Zpráva byla vytvořena před 1 hodinou a 43 minutami, v 12:20 UTC
Jihojihozápadní vítr 15 kt
Teplota -3°C
Vlhkost vzduchu 74%
Tlak 1003 hPa
Viditelnost 10 km a více
Žádná oblačnost pod 1500 m, nevyskytují se cumulonimby.

METAR: ENBV 251220Z 21015KT CAVOK M03/M07 Q1003

Čas: 15:03 (14:03 UTC)

Předpověď počasí

Zpráva byla vytvořena před 3 hodinami a 3 minutami, v 11:00 UTC
Předpověď platná od 25 v 12 UTC do 25 v 21 UTC
Jihozápadní vítr 20 kt
Viditelnost 10 km a více
Skoro jasno ve výšce 2000 ft
Dočasný
od 25 v 12 UTC do 25 v 18 UTC
Jihozápadní vítr 10 kt

TAF: ENBV 251100Z 2512/2521 22020KT 9999 FEW020 TEMPO 2512/2518 22010KT

Stav a předpovědi počasí z více než 4 000 letišť (zprávy METAR a TAF).

Červené a žluté tečky na mapě představují dostupné meteorologické stanice.

Když kurzor umístíte na tečku, zobrazí se název stanice.

Pak kliknutím zobrazíte stav a předpověď počasí.

Chcete-li změnit mapu, kliknutím na zelené tlačítko se znaménkem +mapu přiblížíte, kliknutím na zelené tlačítko se znaménkem – mapu oddálíte a kliknutím na zelené šipky přejdete na sousední mapy.


METAR-TAF: